sensor_id;sensor_type;location;lat;lon;timestamp;pressure;altitude;pressure_sealevel;temperature;humidity
40574;BME280;26283;49.020;8.644;2024-01-06T00:02:03;98133.63;;;10.60;65.59
40574;BME280;26283;49.020;8.644;2024-01-06T00:04:28;98136.31;;;10.60;65.60
40574;BME280;26283;49.020;8.644;2024-01-06T00:06:54;98128.47;;;10.58;65.61
40574;BME280;26283;49.020;8.644;2024-01-06T00:09:19;98133.84;;;10.58;65.61
40574;BME280;26283;49.020;8.644;2024-01-06T00:11:44;98131.97;;;10.59;65.62
40574;BME280;26283;49.020;8.644;2024-01-06T00:14:10;98133.84;;;10.58;65.63
40574;BME280;26283;49.020;8.644;2024-01-06T00:16:35;98130.34;;;10.58;65.64
40574;BME280;26283;49.020;8.644;2024-01-06T00:19:00;98124.97;;;10.58;65.65
40574;BME280;26283;49.020;8.644;2024-01-06T00:21:27;98132.22;;;10.57;65.66
40574;BME280;26283;49.020;8.644;2024-01-06T00:23:52;98127.91;;;10.56;65.66
40574;BME280;26283;49.020;8.644;2024-01-06T00:26:18;98134.09;;;10.57;65.67
40574;BME280;26283;49.020;8.644;2024-01-06T00:28:43;98139.72;;;10.55;65.69
40574;BME280;26283;49.020;8.644;2024-01-06T00:31:08;98132.47;;;10.56;65.70
40574;BME280;26283;49.020;8.644;2024-01-06T00:33:34;98127.06;;;10.56;65.71
40574;BME280;26283;49.020;8.644;2024-01-06T00:35:59;98121.13;;;10.54;65.71
40574;BME280;26283;49.020;8.644;2024-01-06T00:38:25;98124.63;;;10.54;65.72
40574;BME280;26283;49.020;8.644;2024-01-06T00:40:50;98120.31;;;10.53;65.73
40574;BME280;26283;49.020;8.644;2024-01-06T00:43:16;98123.81;;;10.54;65.74
40574;BME280;26283;49.020;8.644;2024-01-06T00:45:41;98125.69;;;10.53;65.75
40574;BME280;26283;49.020;8.644;2024-01-06T00:48:06;98121.34;;;10.52;65.75
40574;BME280;26283;49.020;8.644;2024-01-06T00:50:32;98123.25;;;10.52;65.76
40574;BME280;26283;49.020;8.644;2024-01-06T00:52:57;98123.25;;;10.52;65.77
40574;BME280;26283;49.020;8.644;2024-01-06T00:55:23;98132.38;;;10.51;65.78
40574;BME280;26283;49.020;8.644;2024-01-06T00:57:50;98138.59;;;10.51;65.79
40574;BME280;26283;49.020;8.644;2024-01-06T01:00:15;98137.53;;;10.52;65.80
40574;BME280;26283;49.020;8.644;2024-01-06T01:02:41;98133.19;;;10.51;65.80
40574;BME280;26283;49.020;8.644;2024-01-06T01:05:06;98142.34;;;10.50;65.82
40574;BME280;26283;49.020;8.644;2024-01-06T01:07:33;98140.47;;;10.51;65.82
40574;BME280;26283;49.020;8.644;2024-01-06T01:09:58;98145.84;;;10.51;65.82
40574;BME280;26283;49.020;8.644;2024-01-06T01:12:24;98148.78;;;10.49;65.84
40574;BME280;26283;49.020;8.644;2024-01-06T01:14:50;98153.09;;;10.50;65.84
40574;BME280;26283;49.020;8.644;2024-01-06T01:17:16;98155.00;;;10.50;65.85
40574;BME280;26283;49.020;8.644;2024-01-06T01:19:41;98161.44;;;10.49;65.86
40574;BME280;26283;49.020;8.644;2024-01-06T01:22:06;98158.75;;;10.49;65.87
40574;BME280;26283;49.020;8.644;2024-01-06T01:24:32;98164.94;;;10.49;65.87
40574;BME280;26283;49.020;8.644;2024-01-06T01:26:57;98167.62;;;10.49;65.87
40574;BME280;26283;49.020;8.644;2024-01-06T01:29:23;98168.94;;;10.47;65.87
40574;BME280;26283;49.020;8.644;2024-01-06T01:31:48;98174.91;;;10.49;65.89
40574;BME280;26283;49.020;8.644;2024-01-06T01:34:13;98172.44;;;10.47;65.89
40574;BME280;26283;49.020;8.644;2024-01-06T01:36:39;98171.63;;;10.47;65.90
40574;BME280;26283;49.020;8.644;2024-01-06T01:39:05;98174.56;;;10.45;65.92
40574;BME280;26283;49.020;8.644;2024-01-06T01:41:30;98183.22;;;10.47;65.92
40574;BME280;26283;49.020;8.644;2024-01-06T01:43:55;98192.38;;;10.46;65.93
40574;BME280;26283;49.020;8.644;2024-01-06T01:46:28;98189.91;;;10.45;65.93
40574;BME280;26283;49.020;8.644;2024-01-06T01:48:54;98192.59;;;10.45;65.95
40574;BME280;26283;49.020;8.644;2024-01-06T01:51:20;98190.72;;;10.45;65.95
40574;BME280;26283;49.020;8.644;2024-01-06T01:53:47;98203.38;;;10.45;65.96
40574;BME280;26283;49.020;8.644;2024-01-06T01:56:12;98209.56;;;10.45;65.98
40574;BME280;26283;49.020;8.644;2024-01-06T01:58:38;98207.94;;;10.44;65.99
40574;BME280;26283;49.020;8.644;2024-01-06T02:01:04;98209.00;;;10.43;65.99
40574;BME280;26283;49.020;8.644;2024-01-06T02:03:30;98208.19;;;10.43;65.99
40574;BME280;26283;49.020;8.644;2024-01-06T02:05:55;98208.19;;;10.43;66.00
40574;BME280;26283;49.020;8.644;2024-01-06T02:08:21;98213.56;;;10.43;66.00
40574;BME280;26283;49.020;8.644;2024-01-06T02:10:47;98212.75;;;10.42;66.02
40574;BME280;26283;49.020;8.644;2024-01-06T02:13:13;98214.38;;;10.43;66.02
40574;BME280;26283;49.020;8.644;2024-01-06T02:15:38;98212.75;;;10.42;66.03
40574;BME280;26283;49.020;8.644;2024-01-06T02:18:04;98210.06;;;10.42;66.04
40574;BME280;26283;49.020;8.644;2024-01-06T02:20:30;98212.75;;;10.42;66.06
40574;BME280;26283;49.020;8.644;2024-01-06T02:22:56;98221.06;;;10.41;66.07
40574;BME280;26283;49.020;8.644;2024-01-06T02:25:25;98225.66;;;10.40;66.08
40574;BME280;26283;49.020;8.644;2024-01-06T02:27:51;98223.78;;;10.41;66.07
40574;BME280;26283;49.020;8.644;2024-01-06T02:30:16;98225.41;;;10.42;66.08
40574;BME280;26283;49.020;8.644;2024-01-06T02:32:42;98220.25;;;10.40;66.08
40574;BME280;26283;49.020;8.644;2024-01-06T02:35:07;98219.44;;;10.40;66.09
40574;BME280;26283;49.020;8.644;2024-01-06T02:37:33;98226.47;;;10.41;66.10
40574;BME280;26283;49.020;8.644;2024-01-06T02:39:58;98228.59;;;10.39;66.10
40574;BME280;26283;49.020;8.644;2024-01-06T02:42:23;98234.00;;;10.39;66.10
40574;BME280;26283;49.020;8.644;2024-01-06T02:44:50;98240.97;;;10.40;66.11
40574;BME280;26283;49.020;8.644;2024-01-06T02:47:16;98240.44;;;10.38;66.11
40574;BME280;26283;49.020;8.644;2024-01-06T02:49:41;98243.13;;;10.38;66.11
40574;BME280;26283;49.020;8.644;2024-01-06T02:52:06;98244.75;;;10.39;66.12
40574;BME280;26283;49.020;8.644;2024-01-06T02:54:32;98247.47;;;10.39;66.13
40574;BME280;26283;49.020;8.644;2024-01-06T02:56:57;98249.34;;;10.38;66.14
40574;BME280;26283;49.020;8.644;2024-01-06T02:59:22;98252.03;;;10.38;66.13
40574;BME280;26283;49.020;8.644;2024-01-06T03:01:48;98244.19;;;10.37;66.14
40574;BME280;26283;49.020;8.644;2024-01-06T03:04:13;98246.88;;;10.37;66.16
40574;BME280;26283;49.020;8.644;2024-01-06T03:06:38;98246.88;;;10.37;66.15
40574;BME280;26283;49.020;8.644;2024-01-06T03:09:04;98246.06;;;10.36;66.14
40574;BME280;26283;49.020;8.644;2024-01-06T03:11:29;98246.88;;;10.37;66.14
40574;BME280;26283;49.020;8.644;2024-01-06T03:13:54;98251.44;;;10.36;66.14
40574;BME280;26283;49.020;8.644;2024-01-06T03:16:20;98256.03;;;10.36;66.16
40574;BME280;26283;49.020;8.644;2024-01-06T03:18:45;98259.75;;;10.35;66.14
40574;BME280;26283;49.020;8.644;2024-01-06T03:21:21;98260.59;;;10.35;66.16
40574;BME280;26283;49.020;8.644;2024-01-06T03:23:48;98260.81;;;10.34;66.18
40574;BME280;26283;49.020;8.644;2024-01-06T03:26:14;98261.88;;;10.33;66.17
40574;BME280;26283;49.020;8.644;2024-01-06T03:28:39;98259.75;;;10.35;66.18
40574;BME280;26283;49.020;8.644;2024-01-06T03:31:05;98262.69;;;10.33;66.19
40574;BME280;26283;49.020;8.644;2024-01-06T03:33:30;98266.22;;;10.34;66.19
40574;BME280;26283;49.020;8.644;2024-01-06T03:35:55;98263.50;;;10.34;66.18
40574;BME280;26283;49.020;8.644;2024-01-06T03:38:21;98253.81;;;10.33;66.18
40574;BME280;26283;49.020;8.644;2024-01-06T03:40:46;98261.88;;;10.33;66.18
40574;BME280;26283;49.020;8.644;2024-01-06T03:43:11;98257.56;;;10.32;66.19
40574;BME280;26283;49.020;8.644;2024-01-06T03:45:37;98258.38;;;10.32;66.20
40574;BME280;26283;49.020;8.644;2024-01-06T03:48:02;98254.84;;;10.32;66.20
40574;BME280;26283;49.020;8.644;2024-01-06T03:50:27;98256.97;;;10.29;66.21
40574;BME280;26283;49.020;8.644;2024-01-06T03:52:53;98263.19;;;10.30;66.20
40574;BME280;26283;49.020;8.644;2024-01-06T03:55:18;98256.97;;;10.29;66.21
40574;BME280;26283;49.020;8.644;2024-01-06T03:57:43;98255.34;;;10.28;66.22
40574;BME280;26283;49.020;8.644;2024-01-06T04:00:09;98264.00;;;10.30;66.23
40574;BME280;26283;49.020;8.644;2024-01-06T04:02:35;98256.41;;;10.27;66.24
40574;BME280;26283;49.020;8.644;2024-01-06T04:05:00;98258.84;;;10.29;66.25
40574;BME280;26283;49.020;8.644;2024-01-06T04:07:26;98262.59;;;10.28;66.24
40574;BME280;26283;49.020;8.644;2024-01-06T04:09:51;98264.47;;;10.27;66.25
40574;BME280;26283;49.020;8.644;2024-01-06T04:12:16;98261.78;;;10.27;66.26
40574;BME280;26283;49.020;8.644;2024-01-06T04:14:42;98267.16;;;10.27;66.27
40574;BME280;26283;49.020;8.644;2024-01-06T04:17:07;98263.66;;;10.27;66.26
40574;BME280;26283;49.020;8.644;2024-01-06T04:19:32;98267.41;;;10.26;66.28
40574;BME280;26283;49.020;8.644;2024-01-06T04:21:59;98271.72;;;10.27;66.28
40574;BME280;26283;49.020;8.644;2024-01-06T04:24:24;98269.28;;;10.25;66.28
40574;BME280;26283;49.020;8.644;2024-01-06T04:26:50;98266.59;;;10.25;66.29
40574;BME280;26283;49.020;8.644;2024-01-06T04:29:15;98255.81;;;10.25;66.31
40574;BME280;26283;49.020;8.644;2024-01-06T04:31:41;98258.50;;;10.25;66.31
40574;BME280;26283;49.020;8.644;2024-01-06T04:34:06;98254.19;;;10.24;66.30
40574;BME280;26283;49.020;8.644;2024-01-06T04:36:31;98265.78;;;10.25;66.31
40574;BME280;26283;49.020;8.644;2024-01-06T04:38:57;98264.94;;;10.24;66.30
40574;BME280;26283;49.020;8.644;2024-01-06T04:41:22;98259.56;;;10.24;66.32
40574;BME280;26283;49.020;8.644;2024-01-06T04:43:47;98254.19;;;10.24;66.33
40574;BME280;26283;49.020;8.644;2024-01-06T04:46:13;98252.53;;;10.23;66.33
40574;BME280;26283;49.020;8.644;2024-01-06T04:48:40;98264.38;;;10.22;66.33
40574;BME280;26283;49.020;8.644;2024-01-06T04:51:06;98257.09;;;10.23;66.34
40574;BME280;26283;49.020;8.644;2024-01-06T04:53:35;98260.03;;;10.21;66.33
40574;BME280;26283;49.020;8.644;2024-01-06T04:56:00;98267.88;;;10.23;66.36
40574;BME280;26283;49.020;8.644;2024-01-06T04:58:26;98277.00;;;10.22;66.37
40574;BME280;26283;49.020;8.644;2024-01-06T05:00:51;98271.63;;;10.22;66.37
40574;BME280;26283;49.020;8.644;2024-01-06T05:03:17;98277.00;;;10.22;66.36
40574;BME280;26283;49.020;8.644;2024-01-06T05:05:46;98271.87;;;10.20;66.37
40574;BME280;26283;49.020;8.644;2024-01-06T05:08:11;98271.87;;;10.20;66.38
40574;BME280;26283;49.020;8.644;2024-01-06T05:10:37;98270.00;;;10.21;66.38
40574;BME280;26283;49.020;8.644;2024-01-06T05:13:02;98271.06;;;10.20;66.38
40574;BME280;26283;49.020;8.644;2024-01-06T05:15:28;98270.22;;;10.19;66.39
40574;BME280;26283;49.020;8.644;2024-01-06T05:17:53;98275.62;;;10.19;66.40
40574;BME280;26283;49.020;8.644;2024-01-06T05:20:19;98278.31;;;10.19;66.42
40574;BME280;26283;49.020;8.644;2024-01-06T05:22:44;98282.03;;;10.18;66.42
40574;BME280;26283;49.020;8.644;2024-01-06T05:25:09;98285.56;;;10.19;66.42
40574;BME280;26283;49.020;8.644;2024-01-06T05:27:35;98279.34;;;10.18;66.42
40574;BME280;26283;49.020;8.644;2024-01-06T05:30:03;98277.50;;;10.19;66.41
40574;BME280;26283;49.020;8.644;2024-01-06T05:32:28;98275.81;;;10.18;66.43
40574;BME280;26283;49.020;8.644;2024-01-06T05:34:53;98275.03;;;10.17;66.43
40574;BME280;26283;49.020;8.644;2024-01-06T05:37:19;98276.63;;;10.18;66.45
40574;BME280;26283;49.020;8.644;2024-01-06T05:39:44;98281.22;;;10.18;66.46
40574;BME280;26283;49.020;8.644;2024-01-06T05:42:10;98274.22;;;10.17;66.46
40574;BME280;26283;49.020;8.644;2024-01-06T05:44:40;98273.41;;;10.16;66.43
40574;BME280;26283;49.020;8.644;2024-01-06T05:47:05;98276.91;;;10.17;66.45
40574;BME280;26283;49.020;8.644;2024-01-06T05:49:30;98292.25;;;10.16;66.45
40574;BME280;26283;49.020;8.644;2024-01-06T05:51:56;98287.69;;;10.17;66.46
40574;BME280;26283;49.020;8.644;2024-01-06T05:54:21;98282.53;;;10.15;66.48
40574;BME280;26283;49.020;8.644;2024-01-06T05:56:46;98282.53;;;10.15;66.49
40574;BME280;26283;49.020;8.644;2024-01-06T05:59:12;98287.91;;;10.15;66.47
40574;BME280;26283;49.020;8.644;2024-01-06T06:01:37;98285.22;;;10.15;66.47
40574;BME280;26283;49.020;8.644;2024-01-06T06:04:03;98294.94;;;10.16;66.47
40574;BME280;26283;49.020;8.644;2024-01-06T06:06:28;98298.69;;;10.15;66.48
40574;BME280;26283;49.020;8.644;2024-01-06T06:08:53;98300.56;;;10.15;66.48
40574;BME280;26283;49.020;8.644;2024-01-06T06:11:19;98300.56;;;10.15;66.48
40574;BME280;26283;49.020;8.644;2024-01-06T06:13:44;98310.50;;;10.14;66.48
40574;BME280;26283;49.020;8.644;2024-01-06T06:16:10;98321.28;;;10.14;66.49
40574;BME280;26283;49.020;8.644;2024-01-06T06:18:37;98316.94;;;10.13;66.51
40574;BME280;26283;49.020;8.644;2024-01-06T06:21:03;98319.63;;;10.13;66.51
40574;BME280;26283;49.020;8.644;2024-01-06T06:23:30;98327.72;;;10.13;66.51
40574;BME280;26283;49.020;8.644;2024-01-06T06:25:55;98333.09;;;10.13;66.51
40574;BME280;26283;49.020;8.644;2024-01-06T06:28:21;98329.59;;;10.13;66.51
40574;BME280;26283;49.020;8.644;2024-01-06T06:30:46;98336.84;;;10.12;66.51
40574;BME280;26283;49.020;8.644;2024-01-06T06:33:12;98336.84;;;10.12;66.52
40574;BME280;26283;49.020;8.644;2024-01-06T06:35:37;98344.09;;;10.12;66.52
40574;BME280;26283;49.020;8.644;2024-01-06T06:38:03;98342.22;;;10.12;66.52
40574;BME280;26283;49.020;8.644;2024-01-06T06:40:28;98349.72;;;10.10;66.53
40574;BME280;26283;49.020;8.644;2024-01-06T06:42:54;98357.56;;;10.12;66.52
40574;BME280;26283;49.020;8.644;2024-01-06T06:45:19;98354.87;;;10.12;66.52
40574;BME280;26283;49.020;8.644;2024-01-06T06:47:48;98365.88;;;10.10;66.52
40574;BME280;26283;49.020;8.644;2024-01-06T06:50:15;98353.22;;;10.11;66.53
40574;BME280;26283;49.020;8.644;2024-01-06T06:52:40;98355.09;;;10.10;66.54
40574;BME280;26283;49.020;8.644;2024-01-06T06:55:07;98359.66;;;10.10;66.52
40574;BME280;26283;49.020;8.644;2024-01-06T06:57:32;98360.72;;;10.09;66.54
40574;BME280;26283;49.020;8.644;2024-01-06T06:59:58;98364.22;;;10.09;66.55
40574;BME280;26283;49.020;8.644;2024-01-06T07:02:23;98367.97;;;10.08;66.55
40574;BME280;26283;49.020;8.644;2024-01-06T07:04:48;98372.31;;;10.09;66.54
40574;BME280;26283;49.020;8.644;2024-01-06T07:07:14;98375.00;;;10.09;66.55
40574;BME280;26283;49.020;8.644;2024-01-06T07:09:40;98378.75;;;10.08;66.56
40574;BME280;26283;49.020;8.644;2024-01-06T07:12:06;98386.81;;;10.08;66.56
40574;BME280;26283;49.020;8.644;2024-01-06T07:14:31;98389.50;;;10.08;66.57
40574;BME280;26283;49.020;8.644;2024-01-06T07:16:56;98400.28;;;10.08;66.58
40574;BME280;26283;49.020;8.644;2024-01-06T07:19:22;98393.03;;;10.09;66.56
40574;BME280;26283;49.020;8.644;2024-01-06T07:21:48;98399.47;;;10.08;66.57
40574;BME280;26283;49.020;8.644;2024-01-06T07:24:14;98406.72;;;10.07;66.58
40574;BME280;26283;49.020;8.644;2024-01-06T07:26:39;98404.84;;;10.08;66.59
40574;BME280;26283;49.020;8.644;2024-01-06T07:29:04;98409.41;;;10.07;66.57
40574;BME280;26283;49.020;8.644;2024-01-06T07:31:30;98409.41;;;10.07;66.57
40574;BME280;26283;49.020;8.644;2024-01-06T07:33:55;98409.66;;;10.06;66.58
40574;BME280;26283;49.020;8.644;2024-01-06T07:36:20;98420.19;;;10.07;66.57
40574;BME280;26283;49.020;8.644;2024-01-06T07:38:47;98425.78;;;10.06;66.58
40574;BME280;26283;49.020;8.644;2024-01-06T07:41:13;98417.72;;;10.06;66.57
40574;BME280;26283;49.020;8.644;2024-01-06T07:43:38;98415.03;;;10.06;66.58
40574;BME280;26283;49.020;8.644;2024-01-06T07:46:03;98417.94;;;10.04;66.60
40574;BME280;26283;49.020;8.644;2024-01-06T07:48:29;98416.91;;;10.05;66.60
40574;BME280;26283;49.020;8.644;2024-01-06T07:50:54;98430.13;;;10.07;66.62
40574;BME280;26283;49.020;8.644;2024-01-06T07:53:20;98417.94;;;10.04;66.61
40574;BME280;26283;49.020;8.644;2024-01-06T07:55:45;98427.66;;;10.05;66.61
40574;BME280;26283;49.020;8.644;2024-01-06T07:58:10;98430.34;;;10.05;66.61
40574;BME280;26283;49.020;8.644;2024-01-06T08:00:37;98432.22;;;10.05;66.62
40574;BME280;26283;49.020;8.644;2024-01-06T08:03:02;98430.34;;;10.05;66.61
40574;BME280;26283;49.020;8.644;2024-01-06T08:05:31;98430.59;;;10.04;66.62
40574;BME280;26283;49.020;8.644;2024-01-06T08:07:56;98436.78;;;10.04;66.62
40574;BME280;26283;49.020;8.644;2024-01-06T08:10:22;98447.56;;;10.04;66.62
40574;BME280;26283;49.020;8.644;2024-01-06T08:12:47;98450.25;;;10.04;66.63
40574;BME280;26283;49.020;8.644;2024-01-06T08:15:13;98451.31;;;10.03;66.62
40574;BME280;26283;49.020;8.644;2024-01-06T08:17:39;98448.63;;;10.03;66.62
40574;BME280;26283;49.020;8.644;2024-01-06T08:20:07;98450.47;;;10.03;66.62
40574;BME280;26283;49.020;8.644;2024-01-06T08:22:33;98438.91;;;10.02;66.63
40574;BME280;26283;49.020;8.644;2024-01-06T08:24:59;98442.41;;;10.03;66.63
40574;BME280;26283;49.020;8.644;2024-01-06T08:27:24;98445.09;;;10.03;66.64
40574;BME280;26283;49.020;8.644;2024-01-06T08:29:50;98448.84;;;10.02;66.63
40574;BME280;26283;49.020;8.644;2024-01-06T08:32:15;98446.97;;;10.02;66.64
40574;BME280;26283;49.020;8.644;2024-01-06T08:34:41;98448.84;;;10.02;66.63
40574;BME280;26283;49.020;8.644;2024-01-06T08:37:07;98451.78;;;10.00;66.64
40574;BME280;26283;49.020;8.644;2024-01-06T08:39:32;98457.75;;;10.02;66.63
40574;BME280;26283;49.020;8.644;2024-01-06T08:41:58;98451.78;;;10.00;66.62
40574;BME280;26283;49.020;8.644;2024-01-06T08:44:24;98463.13;;;10.02;66.63
40574;BME280;26283;49.020;8.644;2024-01-06T08:46:49;98461.25;;;10.03;66.62
40574;BME280;26283;49.020;8.644;2024-01-06T08:49:15;98457.16;;;10.00;66.63
40574;BME280;26283;49.020;8.644;2024-01-06T08:51:41;98455.28;;;10.01;66.63
40574;BME280;26283;49.020;8.644;2024-01-06T08:54:06;98466.88;;;10.01;66.64
40574;BME280;26283;49.020;8.644;2024-01-06T08:59:01;98467.09;;;10.00;66.64
40574;BME280;26283;49.020;8.644;2024-01-06T09:01:27;98467.91;;;10.00;66.63
40574;BME280;26283;49.020;8.644;2024-01-06T09:03:52;98472.47;;;10.00;66.64
40574;BME280;26283;49.020;8.644;2024-01-06T09:06:17;98475.19;;;10.00;66.64
40574;BME280;26283;49.020;8.644;2024-01-06T09:08:43;98468.16;;;9.98;66.65
40574;BME280;26283;49.020;8.644;2024-01-06T09:11:08;98467.34;;;9.98;66.64
40574;BME280;26283;49.020;8.644;2024-01-06T09:13:33;98470.03;;;9.98;66.64
40574;BME280;26283;49.020;8.644;2024-01-06T09:15:59;98470.84;;;9.98;66.65
40574;BME280;26283;49.020;8.644;2024-01-06T09:18:26;98475.41;;;9.98;66.66
40574;BME280;26283;49.020;8.644;2024-01-06T09:20:52;98477.50;;;9.96;66.66
40574;BME280;26283;49.020;8.644;2024-01-06T09:23:17;98473.78;;;9.97;66.67
40574;BME280;26283;49.020;8.644;2024-01-06T09:25:43;98484.53;;;9.97;66.68
40574;BME280;26283;49.020;8.644;2024-01-06T09:28:08;98485.34;;;9.97;66.67
40574;BME280;26283;49.020;8.644;2024-01-06T09:30:33;98484.53;;;9.97;66.67
40574;BME280;26283;49.020;8.644;2024-01-06T09:32:59;98481.84;;;9.97;66.68
40574;BME280;26283;49.020;8.644;2024-01-06T09:35:24;98488.28;;;9.96;66.68
40574;BME280;26283;49.020;8.644;2024-01-06T09:37:52;98499.84;;;9.96;66.68
40574;BME280;26283;49.020;8.644;2024-01-06T09:40:22;98499.84;;;9.96;66.69
40574;BME280;26283;49.020;8.644;2024-01-06T09:42:49;98499.84;;;9.96;66.70
40574;BME280;26283;49.020;8.644;2024-01-06T09:45:15;98501.72;;;9.96;66.69
40574;BME280;26283;49.020;8.644;2024-01-06T09:47:41;98506.06;;;9.97;66.69
40574;BME280;26283;49.020;8.644;2024-01-06T09:50:08;98506.06;;;9.97;66.69
40574;BME280;26283;49.020;8.644;2024-01-06T09:52:39;98499.03;;;9.96;66.69
40574;BME280;26283;49.020;8.644;2024-01-06T09:55:11;98500.13;;;9.95;66.69
40574;BME280;26283;49.020;8.644;2024-01-06T09:57:37;98503.62;;;9.95;66.68
40574;BME280;26283;49.020;8.644;2024-01-06T10:00:04;98502.00;;;9.94;66.69
40574;BME280;26283;49.020;8.644;2024-01-06T10:02:30;98515.44;;;9.94;66.70
40574;BME280;26283;49.020;8.644;2024-01-06T10:04:57;98505.50;;;9.95;66.70
40574;BME280;26283;49.020;8.644;2024-01-06T10:07:25;98519.78;;;9.95;66.70
40574;BME280;26283;49.020;8.644;2024-01-06T10:09:50;98522.47;;;9.95;66.69
40574;BME280;26283;49.020;8.644;2024-01-06T10:12:23;98515.44;;;9.94;66.69
40574;BME280;26283;49.020;8.644;2024-01-06T10:14:49;98516.28;;;9.95;66.70
40574;BME280;26283;49.020;8.644;2024-01-06T10:17:14;98517.09;;;9.95;66.70
40574;BME280;26283;49.020;8.644;2024-01-06T10:19:40;98518.16;;;9.94;66.71
40574;BME280;26283;49.020;8.644;2024-01-06T10:22:05;98512.75;;;9.94;66.70
40574;BME280;26283;49.020;8.644;2024-01-06T10:24:30;98518.16;;;9.94;66.70
40574;BME280;26283;49.020;8.644;2024-01-06T10:26:57;98520.84;;;9.94;66.70
40574;BME280;26283;49.020;8.644;2024-01-06T10:29:22;98523.53;;;9.94;66.70
40574;BME280;26283;49.020;8.644;2024-01-06T10:31:49;98506.56;;;9.94;66.71
40574;BME280;26283;49.020;8.644;2024-01-06T10:34:15;98517.31;;;9.94;66.71
40574;BME280;26283;49.020;8.644;2024-01-06T10:36:40;98516.50;;;9.93;66.71
40574;BME280;26283;49.020;8.644;2024-01-06T10:39:07;98518.38;;;9.93;66.71
40574;BME280;26283;49.020;8.644;2024-01-06T10:44:03;98517.31;;;9.94;66.70
40574;BME280;26283;49.020;8.644;2024-01-06T10:46:30;98510.28;;;9.93;66.71
40574;BME280;26283;49.020;8.644;2024-01-06T10:48:57;98515.69;;;9.93;66.70
40574;BME280;26283;49.020;8.644;2024-01-06T10:51:25;98517.31;;;9.94;66.70
40574;BME280;26283;49.020;8.644;2024-01-06T10:53:50;98511.94;;;9.94;66.68
40574;BME280;26283;49.020;8.644;2024-01-06T10:56:17;98521.66;;;9.95;66.68
40574;BME280;26283;49.020;8.644;2024-01-06T10:58:46;98518.16;;;9.94;66.69
40574;BME280;26283;49.020;8.644;2024-01-06T11:01:13;98516.50;;;9.93;66.68
40574;BME280;26283;49.020;8.644;2024-01-06T11:03:39;98515.69;;;9.93;66.67
40574;BME280;26283;49.020;8.644;2024-01-06T11:06:06;98516.50;;;9.93;66.66
40574;BME280;26283;49.020;8.644;2024-01-06T11:08:42;98511.12;;;9.93;66.68
40574;BME280;26283;49.020;8.644;2024-01-06T11:11:16;98519.19;;;9.93;66.68
40574;BME280;26283;49.020;8.644;2024-01-06T11:13:42;98514.63;;;9.94;66.65
40574;BME280;26283;49.020;8.644;2024-01-06T11:16:09;98514.63;;;9.94;66.66
40574;BME280;26283;49.020;8.644;2024-01-06T11:18:37;98508.44;;;9.93;66.67
40574;BME280;26283;49.020;8.644;2024-01-06T11:21:16;98506.56;;;9.94;66.68
40574;BME280;26283;49.020;8.644;2024-01-06T11:26:38;98511.12;;;9.93;66.67
40574;BME280;26283;49.020;8.644;2024-01-06T11:29:04;98514.03;;;9.92;66.65
40574;BME280;26283;49.020;8.644;2024-01-06T11:31:32;98508.66;;;9.92;66.67
40574;BME280;26283;49.020;8.644;2024-01-06T11:34:12;98503.28;;;9.92;66.70
40574;BME280;26283;49.020;8.644;2024-01-06T11:36:38;98509.47;;;9.92;66.71
40574;BME280;26283;49.020;8.644;2024-01-06T11:39:05;98503.28;;;9.92;66.69
40574;BME280;26283;49.020;8.644;2024-01-06T11:41:52;98510.28;;;9.93;66.70
40574;BME280;26283;49.020;8.644;2024-01-06T11:44:21;98507.59;;;9.93;66.71
40574;BME280;26283;49.020;8.644;2024-01-06T11:46:47;98504.09;;;9.92;66.67
40574;BME280;26283;49.020;8.644;2024-01-06T11:49:15;98497.06;;;9.91;66.69
40574;BME280;26283;49.020;8.644;2024-01-06T11:51:41;98497.06;;;9.91;66.69
40574;BME280;26283;49.020;8.644;2024-01-06T11:54:08;98499.75;;;9.91;66.69
40574;BME280;26283;49.020;8.644;2024-01-06T11:56:34;98500.59;;;9.92;66.69
40574;BME280;26283;49.020;8.644;2024-01-06T11:58:59;98500.59;;;9.92;66.69
40574;BME280;26283;49.020;8.644;2024-01-06T12:01:25;98504.91;;;9.93;66.70
40574;BME280;26283;49.020;8.644;2024-01-06T12:03:54;98506.78;;;9.92;66.69
40574;BME280;26283;49.020;8.644;2024-01-06T12:06:20;98499.53;;;9.93;66.68
40574;BME280;26283;49.020;8.644;2024-01-06T12:08:49;98499.53;;;9.93;66.67
40574;BME280;26283;49.020;8.644;2024-01-06T12:11:17;98497.88;;;9.92;66.68
40574;BME280;26283;49.020;8.644;2024-01-06T12:13:44;98492.50;;;9.92;66.68
40574;BME280;26283;49.020;8.644;2024-01-06T12:16:09;98494.16;;;9.93;66.67
40574;BME280;26283;49.020;8.644;2024-01-06T12:18:35;98489.59;;;9.93;66.67
40574;BME280;26283;49.020;8.644;2024-01-06T12:21:00;98494.16;;;9.93;66.67
40574;BME280;26283;49.020;8.644;2024-01-06T12:23:29;98489.59;;;9.93;66.66
40574;BME280;26283;49.020;8.644;2024-01-06T12:25:55;98491.47;;;9.93;66.66
40574;BME280;26283;49.020;8.644;2024-01-06T12:28:20;98488.78;;;9.93;66.66
40574;BME280;26283;49.020;8.644;2024-01-06T12:30:46;98488.78;;;9.93;66.64
40574;BME280;26283;49.020;8.644;2024-01-06T12:33:11;98493.09;;;9.94;66.65
40574;BME280;26283;49.020;8.644;2024-01-06T12:35:37;98488.78;;;9.93;66.64
40574;BME280;26283;49.020;8.644;2024-01-06T12:38:03;98486.06;;;9.93;66.64
40574;BME280;26283;49.020;8.644;2024-01-06T12:40:32;98486.91;;;9.93;66.62
40574;BME280;26283;49.020;8.644;2024-01-06T12:42:57;98491.47;;;9.93;66.61
40574;BME280;26283;49.020;8.644;2024-01-06T12:45:23;98488.78;;;9.93;66.61
40574;BME280;26283;49.020;8.644;2024-01-06T12:47:48;98484.22;;;9.93;66.61
40574;BME280;26283;49.020;8.644;2024-01-06T12:50:13;98486.91;;;9.93;66.60
40574;BME280;26283;49.020;8.644;2024-01-06T12:52:39;98492.28;;;9.93;66.59
40574;BME280;26283;49.020;8.644;2024-01-06T12:55:06;98488.78;;;9.93;66.60
40574;BME280;26283;49.020;8.644;2024-01-06T12:57:32;98493.09;;;9.94;66.59
40574;BME280;26283;49.020;8.644;2024-01-06T12:59:57;98496.59;;;9.94;66.58
40574;BME280;26283;49.020;8.644;2024-01-06T13:02:23;98495.78;;;9.94;66.58
40574;BME280;26283;49.020;8.644;2024-01-06T13:04:48;98496.59;;;9.94;66.57